Fairgrove, MI

1:14 PM EDT on August 30, 2014 (GMT -0400)
Caro | Change Station
CLOSE
Current Station
Airport
Location: Caro,
Elevation: 702 ft
Nearby Weather Stations

Elev 702 ft 43.46 °N, 83.45 °W | Updated 19 minutes ago

Mostly Cloudy
Mostly Cloudy
77 °F
Feels Like 77 °F
N
10
Wind Variable Wind from SSW

Today
High -- | Low -- °F
--% Chance of Precip.
Yesterday
High -- | Low -- °F
Precip. -- in
6:55 AM 8:13 PM
Waxing Crescent, 23% visible
Pressure 29.89 in
Visibility 10.0 miles
Clouds Scattered Clouds 7000 ft
Scattered Clouds 9500 ft
Mostly Cloudy 12000 ft
Dew Point 72 °F
Humidity 82%
Rainfall 0.00 in
Snow Depth Not available.
UV 5 out of 12
Pollen 8.20 out of 12
Ozone Good
PM2.5 Moderate
Flu Activity Not available.
METAR KCFS 301655Z AUTO 20009KT 10SM SCT070 SCT095 BKN120 25/22 A2989 RMK AO2 T02520220

More Conditions Fewer Conditions

Pressure 29.89 in
Visibility 10.0 miles
Clouds Scattered Clouds 7000 ft
Scattered Clouds 9500 ft
Mostly Cloudy 12000 ft
Dew Point 72 °F
Humidity 82%
Rainfall 0.00 in
Snow Depth Not available.
UV 5 out of 12
Pollen 8.20 out of 12
Ozone Good
PM2.5 Moderate
Flu Activity Not available.
METAR KCFS 301655Z AUTO 20009KT 10SM SCT070 SCT095 BKN120 25/22 A2989 RMK AO2 T02520220

More Conditions Fewer Conditions

10-Day Weather Forecast

Almanac

Astronomy

Aug. 30, 2014 Rise Set
Actual Time 6:55 AM EDT 8:13 PM EDT
Civil Twilight 6:26 AM EDT 8:42 PM EDT
Nautical Twilight 5:50 AM EDT 9:18 PM EDT
Astronomical Twilight 5:12 AM EDT 9:55 PM EDT
Moon 11:52 AM EDT 10:36 PM EDT
Length of Visible Light 14h 16m
Length of Day
13h 17m
Tomorrow will be 2m 51s shorter.
Waxing Crescent, 23% of the Moon is Illuminated
Today
Waxing Crescent
Sep 2
First Quarter
Sep 8
Full
Sep 15
Last Quarter
Sep 24
New

Today's Extremes

State Highs State Lows

Community

WunderPhotos

Upload Photos

1,748,576 photos uploaded!

WunderBlogs® & News

Nearby

Air Quality

  Air Quality AQ Index Pollutant
Yesterday Good
OZONE
Yesterday Good
PM2.5
Current Moderate
PM2.5
Current Good
OZONE
Saturday Good
OZONE
Saturday Good
PM2.5
Sunday Good
OZONE
Sunday Good
PM2.5
Monday Good
OZONE
Monday Good
PM2.5
Tuesday Good
OZONE
Tuesday Good
PM2.5

Snow Depth

Station Depth Elevation
No new snow has been reported.

Earthquake Activity

City Distance Mag. Time & Date
No recent earthquake activity has been reported nearby.
Minimum magnitude displayed is 2.5.

Coastal Water Temperatures

Place Temperature
Harbor Beach, MI 69.1 °F

Nearby Weather Stations